createdAt,value
2022-12-28T00:01:25.706Z,10.57
2022-12-28T00:04:19.018Z,10.35
2022-12-28T00:06:47.665Z,10.13
2022-12-28T00:09:14.489Z,10.32
2022-12-28T00:11:41.327Z,9.40
2022-12-28T00:14:08.474Z,9.60
2022-12-28T00:16:37.363Z,10.35
2022-12-28T00:19:07.135Z,9.00
2022-12-28T00:21:34.471Z,9.32
2022-12-28T00:24:02.282Z,10.15
2022-12-28T00:26:31.813Z,9.57
2022-12-28T00:29:04.091Z,9.35
2022-12-28T00:31:32.142Z,9.18
2022-12-28T00:33:59.303Z,8.95
2022-12-28T00:37:08.748Z,8.38
2022-12-28T00:39:13.164Z,9.13
2022-12-28T00:41:40.273Z,8.15
2022-12-28T00:44:07.111Z,7.80
2022-12-28T00:46:33.934Z,6.72
2022-12-28T00:49:00.849Z,7.03
2022-12-28T00:51:28.719Z,7.00
2022-12-28T00:53:55.515Z,6.70
2022-12-28T00:56:23.373Z,6.53
2022-12-28T00:58:50.810Z,6.20
2022-12-28T01:01:20.663Z,5.60
2022-12-28T01:03:48.603Z,5.10
2022-12-28T01:06:19.979Z,5.85
2022-12-28T01:08:46.832Z,5.20
2022-12-28T01:11:16.531Z,5.28
2022-12-28T01:13:43.639Z,4.53
2022-12-28T01:16:15.891Z,5.22
2022-12-28T01:18:43.474Z,5.30
2022-12-28T01:21:24.264Z,4.35
2022-12-28T01:23:55.373Z,4.40
2022-12-28T01:26:22.621Z,4.03
2022-12-28T01:28:49.529Z,4.47
2022-12-28T01:31:18.489Z,3.63
2022-12-28T01:33:45.815Z,4.03
2022-12-28T01:36:25.268Z,4.00
2022-12-28T01:38:55.023Z,3.90
2022-12-28T01:41:22.435Z,3.42
2022-12-28T01:43:52.399Z,3.03
2022-12-28T01:46:32.414Z,4.03
2022-12-28T01:49:08.007Z,3.03
2022-12-28T01:51:42.871Z,3.50
2022-12-28T01:54:10.008Z,2.28
2022-12-28T01:56:37.118Z,2.80
2022-12-28T01:59:04.034Z,2.80
2022-12-28T02:01:30.860Z,2.55
2022-12-28T02:03:58.127Z,2.08
2022-12-28T02:06:24.948Z,2.40
2022-12-28T02:09:04.797Z,2.22
2022-12-28T02:11:32.536Z,2.10
2022-12-28T02:14:00.079Z,1.80
2022-12-28T02:16:27.962Z,1.77
2022-12-28T02:18:55.238Z,2.30
2022-12-28T02:21:28.015Z,2.15
2022-12-28T02:24:04.247Z,2.00
2022-12-28T02:26:58.451Z,2.00
2022-12-28T02:29:40.458Z,1.92
2022-12-28T02:32:34.419Z,1.58
2022-12-28T02:35:19.840Z,1.60
2022-12-28T02:37:49.123Z,1.75
2022-12-28T02:40:25.123Z,1.48
2022-12-28T02:42:54.377Z,1.50
2022-12-28T02:46:12.618Z,1.63
2022-12-28T02:49:03.852Z,1.48
2022-12-28T02:51:52.051Z,1.20
2022-12-28T02:55:16.548Z,1.13
2022-12-28T02:58:09.517Z,1.10
2022-12-28T03:01:14.707Z,1.20
2022-12-28T03:04:04.445Z,1.33
2022-12-28T03:06:52.840Z,1.38
2022-12-28T03:09:28.557Z,1.95
2022-12-28T03:12:10.582Z,1.45
2022-12-28T03:14:47.616Z,1.10
2022-12-28T03:17:33.287Z,1.38
2022-12-28T03:20:26.352Z,1.25
2022-12-28T03:23:15.599Z,1.45
2022-12-28T03:26:04.233Z,1.20
2022-12-28T03:28:51.717Z,1.13
2022-12-28T03:31:21.439Z,1.15
2022-12-28T03:33:51.809Z,1.27
2022-12-28T03:36:38.946Z,1.58
2022-12-28T03:39:41.812Z,1.23
2022-12-28T03:42:45.455Z,1.30
2022-12-28T03:45:45.800Z,1.45
2022-12-28T03:48:15.892Z,1.00
2022-12-28T03:50:46.155Z,1.20
2022-12-28T03:53:13.296Z,0.95
2022-12-28T03:55:40.671Z,1.40
2022-12-28T03:58:07.523Z,1.20
2022-12-28T04:00:34.551Z,1.48
2022-12-28T04:03:01.328Z,1.25
2022-12-28T04:05:28.709Z,1.30
2022-12-28T04:07:55.537Z,1.30
2022-12-28T04:10:22.399Z,2.05
2022-12-28T04:12:49.265Z,1.10
2022-12-28T04:15:16.082Z,1.13
2022-12-28T04:17:42.788Z,1.38
2022-12-28T04:20:09.801Z,1.40
2022-12-28T04:22:36.633Z,1.15
2022-12-28T04:25:03.702Z,1.23
2022-12-28T04:27:30.381Z,1.17
2022-12-28T04:29:57.163Z,1.33
2022-12-28T04:32:23.905Z,1.45
2022-12-28T04:34:50.636Z,1.35
2022-12-28T04:37:17.455Z,1.42
2022-12-28T04:39:54.843Z,1.40
2022-12-28T04:42:25.799Z,1.60
2022-12-28T04:44:52.553Z,1.27
2022-12-28T04:47:19.430Z,1.40
2022-12-28T04:49:46.290Z,1.52
2022-12-28T04:52:13.587Z,1.23
2022-12-28T04:54:40.350Z,1.30
2022-12-28T04:57:07.145Z,1.27
2022-12-28T04:59:33.910Z,1.70
2022-12-28T05:02:00.922Z,1.33
2022-12-28T05:04:27.907Z,1.05
2022-12-28T05:06:54.760Z,1.85
2022-12-28T05:09:21.638Z,1.40
2022-12-28T05:11:48.567Z,1.35
2022-12-28T05:14:15.815Z,1.67
2022-12-28T05:16:42.679Z,1.67
2022-12-28T05:19:09.543Z,1.60
2022-12-28T05:21:36.520Z,1.42
2022-12-28T05:24:03.535Z,1.67
2022-12-28T05:26:30.387Z,1.60
2022-12-28T05:28:58.888Z,1.40
2022-12-28T05:31:26.998Z,1.60
2022-12-28T05:33:54.773Z,1.40
2022-12-28T05:36:23.674Z,2.15
2022-12-28T05:38:51.326Z,1.65
2022-12-28T05:41:24.819Z,1.50
2022-12-28T05:43:51.850Z,1.50
2022-12-28T05:46:30.638Z,1.23
2022-12-28T05:48:57.811Z,1.10
2022-12-28T05:51:27.609Z,1.17
2022-12-28T05:53:54.791Z,1.42
2022-12-28T05:56:24.545Z,1.27
2022-12-28T05:59:00.156Z,1.60
2022-12-28T06:01:30.669Z,1.65
2022-12-28T06:04:06.694Z,1.33
2022-12-28T06:06:35.483Z,1.60
2022-12-28T06:09:03.147Z,1.35
2022-12-28T06:11:30.329Z,1.70
2022-12-28T06:13:59.090Z,1.10
2022-12-28T06:16:31.485Z,0.85
2022-12-28T06:18:58.919Z,1.30
2022-12-28T06:21:29.368Z,1.60
2022-12-28T06:23:57.981Z,1.38
2022-12-28T06:26:25.586Z,1.35
2022-12-28T06:28:52.477Z,1.50
2022-12-28T06:31:24.582Z,1.58
2022-12-28T06:33:54.438Z,1.88
2022-12-28T06:36:24.188Z,1.30
2022-12-28T06:38:53.219Z,1.48
2022-12-28T06:41:22.581Z,1.98
2022-12-28T06:43:50.426Z,1.75
2022-12-28T06:46:19.238Z,1.27
2022-12-28T06:48:46.382Z,1.52
2022-12-28T06:51:14.347Z,1.25
2022-12-28T06:53:41.981Z,1.60
2022-12-28T06:56:14.847Z,1.92
2022-12-28T06:58:42.502Z,1.38
2022-12-28T07:01:12.487Z,1.73
2022-12-28T07:03:39.575Z,2.30
2022-12-28T07:06:07.234Z,1.38
2022-12-28T07:08:34.069Z,2.00
2022-12-28T07:11:12.693Z,1.58
2022-12-28T07:13:39.913Z,2.08
2022-12-28T07:16:18.303Z,1.67
2022-12-28T07:18:45.724Z,2.28
2022-12-28T07:21:15.153Z,1.33
2022-12-28T07:23:42.672Z,2.05
2022-12-28T07:26:15.279Z,2.15
2022-12-28T07:28:44.956Z,2.03
2022-12-28T07:31:14.834Z,1.77
2022-12-28T07:33:41.991Z,1.98
2022-12-28T07:36:11.504Z,2.30
2022-12-28T07:38:38.635Z,2.88
2022-12-28T07:41:12.262Z,2.35
2022-12-28T07:43:39.658Z,2.47
2022-12-28T07:46:10.258Z,2.00
2022-12-28T07:48:38.374Z,2.80
2022-12-28T07:51:08.620Z,2.20
2022-12-28T07:53:35.306Z,2.55
2022-12-28T07:56:02.246Z,2.13
2022-12-28T07:58:29.163Z,2.20
2022-12-28T08:01:23.269Z,2.67
2022-12-28T08:03:54.760Z,2.50
2022-12-28T08:06:23.496Z,2.90
2022-12-28T08:08:55.387Z,2.28
2022-12-28T08:11:24.672Z,2.60
2022-12-28T08:13:54.043Z,3.17
2022-12-28T08:16:22.262Z,2.75
2022-12-28T08:18:49.319Z,2.60
2022-12-28T08:21:17.553Z,2.42
2022-12-28T08:23:44.734Z,2.88
2022-12-28T08:26:18.254Z,3.08
2022-12-28T08:28:47.559Z,2.63
2022-12-28T08:31:20.642Z,2.97
2022-12-28T08:33:47.555Z,1.92
2022-12-28T08:36:14.764Z,3.60
2022-12-28T08:38:42.734Z,3.08
2022-12-28T08:41:16.927Z,2.92
2022-12-28T08:43:44.130Z,3.22
2022-12-28T08:46:17.356Z,2.55
2022-12-28T08:48:46.105Z,3.08
2022-12-28T08:51:19.321Z,2.83
2022-12-28T08:53:46.576Z,3.25
2022-12-28T08:56:21.573Z,3.33
2022-12-28T08:58:49.752Z,3.60
2022-12-28T09:01:21.898Z,3.42
2022-12-28T09:03:51.017Z,3.08
2022-12-28T09:06:21.229Z,3.40
2022-12-28T09:09:08.250Z,3.20
2022-12-28T09:11:36.259Z,2.60
2022-12-28T09:14:05.193Z,3.00
2022-12-28T09:16:32.371Z,2.67
2022-12-28T09:19:01.006Z,2.88
2022-12-28T09:21:30.645Z,3.05
2022-12-28T09:23:57.736Z,2.70
2022-12-28T09:26:31.119Z,3.00
2022-12-28T09:29:00.324Z,2.95
2022-12-28T09:31:31.100Z,2.58
2022-12-28T09:36:47.884Z,2.70
2022-12-28T09:39:17.659Z,2.53
2022-12-28T09:42:06.127Z,2.47
2022-12-28T09:44:57.374Z,2.95
2022-12-28T09:47:47.590Z,2.47
2022-12-28T09:50:17.532Z,2.45
2022-12-28T09:53:05.690Z,2.13
2022-12-28T09:55:41.287Z,2.28
2022-12-28T09:58:15.450Z,2.42
2022-12-28T10:00:46.942Z,2.40
2022-12-28T10:03:18.410Z,2.50
2022-12-28T10:05:45.764Z,2.40
2022-12-28T10:08:16.312Z,2.65
2022-12-28T10:10:48.632Z,2.28
2022-12-28T10:16:19.288Z,2.70
2022-12-28T10:18:47.883Z,2.30
2022-12-28T10:21:18.715Z,2.45
2022-12-28T10:24:20.939Z,2.00
2022-12-28T10:26:35.718Z,2.05
2022-12-28T10:29:02.473Z,1.65
2022-12-28T10:31:38.461Z,1.40
2022-12-28T10:34:15.633Z,1.70
2022-12-28T10:36:45.166Z,1.92
2022-12-28T10:39:29.920Z,1.70
2022-12-28T10:41:59.882Z,1.40
2022-12-28T10:44:40.983Z,1.30
2022-12-28T10:47:36.179Z,1.30
2022-12-28T10:52:58.572Z,1.52
2022-12-28T10:55:28.350Z,1.30
2022-12-28T10:58:27.866Z,1.60
2022-12-28T11:00:45.696Z,1.70
2022-12-28T11:03:19.622Z,1.42
2022-12-28T11:05:56.489Z,1.38
2022-12-28T11:08:24.078Z,1.50
2022-12-28T11:10:57.206Z,1.75
2022-12-28T11:13:24.209Z,1.52
2022-12-28T11:15:51.093Z,0.98
2022-12-28T11:18:19.054Z,1.15
2022-12-28T11:20:52.284Z,1.30
2022-12-28T11:23:25.520Z,1.77
2022-12-28T11:25:52.578Z,1.60
2022-12-28T11:28:23.354Z,1.50
2022-12-28T11:30:53.420Z,1.77
2022-12-28T11:33:35.557Z,1.88
2022-12-28T11:36:06.972Z,1.48
2022-12-28T11:38:48.065Z,1.42
2022-12-28T11:41:27.532Z,1.27
2022-12-28T11:44:05.477Z,1.40
2022-12-28T11:46:35.323Z,1.33
2022-12-28T11:49:26.789Z,1.42
2022-12-28T11:52:20.955Z,1.20
2022-12-28T11:55:25.903Z,1.35
2022-12-28T11:57:54.783Z,1.42
2022-12-28T12:00:23.461Z,1.33
2022-12-28T12:03:01.618Z,1.35
2022-12-28T12:05:37.739Z,1.38
2022-12-28T12:08:17.445Z,1.40
2022-12-28T12:10:47.427Z,1.50
2022-12-28T12:13:26.684Z,2.20
2022-12-28T12:16:05.507Z,2.00
2022-12-28T12:18:45.288Z,2.15
2022-12-28T12:21:32.647Z,2.08
2022-12-28T12:24:18.582Z,3.42
2022-12-28T12:26:58.751Z,2.20
2022-12-28T12:29:37.247Z,2.70
2022-12-28T12:32:18.308Z,2.42
2022-12-28T12:35:00.673Z,2.70
2022-12-28T12:37:30.488Z,2.30
2022-12-28T12:40:11.726Z,2.22
2022-12-28T12:42:54.081Z,2.30
2022-12-28T12:45:56.385Z,2.05
2022-12-28T12:48:32.551Z,2.17
2022-12-28T12:51:05.464Z,3.08
2022-12-28T12:53:50.761Z,2.75
2022-12-28T12:56:30.933Z,2.65
2022-12-28T12:59:15.357Z,2.83
2022-12-28T13:01:51.761Z,2.88
2022-12-28T13:04:31.763Z,2.67
2022-12-28T13:07:02.835Z,3.00
2022-12-28T13:09:32.753Z,2.60
2022-12-28T13:12:01.701Z,3.10
2022-12-28T13:14:29.395Z,3.08
2022-12-28T13:16:59.210Z,3.00
2022-12-28T13:19:28.709Z,3.50
2022-12-28T13:21:57.904Z,3.47
2022-12-28T13:24:28.618Z,3.30
2022-12-28T13:26:57.840Z,4.10
2022-12-28T13:29:38.796Z,3.78
2022-12-28T13:32:05.752Z,4.35
2022-12-28T13:34:35.276Z,3.55
2022-12-28T13:37:16.289Z,4.13
2022-12-28T13:39:43.024Z,3.50
2022-12-28T13:42:35.408Z,3.80
2022-12-28T13:45:04.526Z,3.42
2022-12-28T13:47:37.575Z,3.88
2022-12-28T13:50:14.488Z,3.20
2022-12-28T13:52:51.762Z,3.85
2022-12-28T13:55:24.717Z,3.35
2022-12-28T13:57:59.435Z,3.22
2022-12-28T14:00:29.909Z,3.80
2022-12-28T14:02:58.684Z,3.13
2022-12-28T14:05:30.695Z,3.45
2022-12-28T14:07:59.227Z,3.28
2022-12-28T14:10:26.832Z,3.13
2022-12-28T14:12:54.889Z,3.30
2022-12-28T14:15:22.331Z,2.70
2022-12-28T14:17:51.724Z,3.08
2022-12-28T14:20:18.671Z,2.95
2022-12-28T14:22:45.769Z,2.92
2022-12-28T14:25:18.567Z,3.22
2022-12-28T14:28:02.297Z,2.75
2022-12-28T14:30:39.491Z,3.22
2022-12-28T14:33:23.890Z,2.85
2022-12-28T14:36:00.937Z,3.47
2022-12-28T14:38:33.779Z,3.30
2022-12-28T14:41:02.951Z,3.00
2022-12-28T14:43:32.401Z,3.72
2022-12-28T14:46:35.702Z,3.85
2022-12-28T14:49:28.511Z,3.00
2022-12-28T14:51:56.111Z,3.70
2022-12-28T14:54:27.176Z,3.60
2022-12-28T14:56:59.843Z,3.92
2022-12-28T14:59:38.332Z,4.07
2022-12-28T15:02:05.806Z,4.20
2022-12-28T15:04:43.111Z,4.30
2022-12-28T15:07:12.002Z,4.35
2022-12-28T15:09:39.190Z,4.32
2022-12-28T15:12:17.853Z,4.03
2022-12-28T15:14:44.875Z,3.70
2022-12-28T15:17:11.812Z,3.80
2022-12-28T15:19:39.479Z,3.88
2022-12-28T15:22:06.526Z,4.00
2022-12-28T15:24:34.569Z,3.72
2022-12-28T15:27:04.983Z,4.00
2022-12-28T15:32:18.969Z,3.95
2022-12-28T15:34:45.713Z,4.10
2022-12-28T15:37:12.498Z,4.50
2022-12-28T15:39:39.268Z,4.18
2022-12-28T15:42:06.143Z,4.35
2022-12-28T15:44:32.978Z,3.75
2022-12-28T15:46:59.849Z,4.53
2022-12-28T15:49:26.654Z,4.20
2022-12-28T15:51:53.505Z,4.30
2022-12-28T15:54:20.321Z,4.80
2022-12-28T15:56:53.102Z,4.30
2022-12-28T15:59:20.093Z,3.90
2022-12-28T16:01:47.492Z,4.80
2022-12-28T16:04:15.260Z,4.40
2022-12-28T16:06:44.879Z,4.55
2022-12-28T16:09:13.578Z,4.53
2022-12-28T16:11:41.002Z,4.65
2022-12-28T16:14:12.961Z,5.15
2022-12-28T16:16:40.793Z,4.63
2022-12-28T16:19:12.457Z,5.10
2022-12-28T16:21:39.448Z,4.75
2022-12-28T16:24:06.423Z,5.20
2022-12-28T16:26:33.115Z,5.30
2022-12-28T16:29:00.507Z,5.20
2022-12-28T16:31:31.069Z,5.15
2022-12-28T16:34:05.695Z,5.25
2022-12-28T16:36:35.008Z,4.78
2022-12-28T16:39:06.609Z,4.70
2022-12-28T16:41:37.548Z,4.53
2022-12-28T16:44:15.904Z,3.45
2022-12-28T16:46:44.724Z,3.83
2022-12-28T16:49:11.949Z,3.45
2022-12-28T16:51:40.908Z,4.13
2022-12-28T16:54:08.463Z,3.80
2022-12-28T16:56:35.202Z,3.88
2022-12-28T16:59:02.042Z,4.10
2022-12-28T17:01:28.893Z,4.15
2022-12-28T17:04:01.783Z,4.10
2022-12-28T17:06:30.308Z,4.18
2022-12-28T17:08:57.016Z,3.88
2022-12-28T17:11:23.800Z,4.20
2022-12-28T17:13:50.526Z,4.55
2022-12-28T17:16:17.260Z,4.50
2022-12-28T17:18:44.366Z,4.28
2022-12-28T17:21:11.127Z,4.45
2022-12-28T17:23:39.395Z,4.18
2022-12-28T17:26:06.762Z,4.65
2022-12-28T17:28:33.543Z,3.78
2022-12-28T17:31:14.218Z,4.10
2022-12-28T17:33:49.553Z,4.05
2022-12-28T17:36:16.665Z,3.78
2022-12-28T17:38:43.640Z,3.20
2022-12-28T17:41:16.565Z,3.20
2022-12-28T17:43:48.447Z,2.75
2022-12-28T17:48:42.660Z,2.95
2022-12-28T17:51:11.587Z,3.15
2022-12-28T17:53:40.397Z,3.33
2022-12-28T17:56:09.896Z,3.08
2022-12-28T17:58:36.800Z,2.90
2022-12-28T18:01:04.093Z,2.85
2022-12-28T18:03:33.977Z,3.13
2022-12-28T18:06:01.367Z,3.03
2022-12-28T18:08:28.589Z,2.60
2022-12-28T18:10:55.445Z,3.08
2022-12-28T18:13:23.457Z,2.35
2022-12-28T18:16:55.273Z,2.85
2022-12-28T18:19:22.251Z,2.72
2022-12-28T18:21:50.748Z,3.25
2022-12-28T18:24:20.854Z,2.47
2022-12-28T18:26:48.065Z,2.70
2022-12-28T18:29:15.160Z,2.88
2022-12-28T18:31:41.994Z,2.75
2022-12-28T18:34:08.964Z,2.65
2022-12-28T18:36:35.647Z,1.90
2022-12-28T18:39:03.752Z,2.00
2022-12-28T18:41:33.879Z,1.58
2022-12-28T18:44:02.862Z,1.30
2022-12-28T18:46:30.220Z,1.42
2022-12-28T18:48:57.392Z,1.20
2022-12-28T18:51:24.280Z,1.00
2022-12-28T18:53:51.538Z,1.52
2022-12-28T18:56:21.054Z,0.85
2022-12-28T18:58:53.053Z,0.98
2022-12-28T19:02:05.351Z,1.42
2022-12-28T19:04:12.666Z,1.30
2022-12-28T19:06:40.486Z,0.80
2022-12-28T19:09:08.963Z,0.90
2022-12-28T19:11:37.532Z,0.75
2022-12-28T19:14:10.447Z,0.90
2022-12-28T19:16:37.350Z,1.05
2022-12-28T19:19:04.305Z,1.10
2022-12-28T19:21:40.068Z,1.10
2022-12-28T19:24:18.597Z,1.27
2022-12-28T19:26:47.694Z,1.45
2022-12-28T19:29:15.647Z,1.23
2022-12-28T19:32:36.153Z,1.17
2022-12-28T19:38:00.837Z,1.20
2022-12-28T19:40:27.598Z,1.30
2022-12-28T19:42:54.230Z,1.45
2022-12-28T19:46:12.111Z,1.60
2022-12-28T19:51:50.868Z,2.80
2022-12-28T19:54:17.535Z,3.22
2022-12-28T19:56:44.759Z,2.97
2022-12-28T19:59:13.458Z,2.72
2022-12-28T20:01:46.183Z,2.72
2022-12-28T20:04:14.464Z,2.95
2022-12-28T20:06:49.228Z,2.35
2022-12-28T20:09:16.259Z,2.55
2022-12-28T20:11:44.946Z,2.47
2022-12-28T20:14:25.003Z,2.58
2022-12-28T20:17:09.686Z,2.65
2022-12-28T20:19:36.410Z,2.67
2022-12-28T20:22:03.183Z,2.80
2022-12-28T20:24:29.831Z,3.10
2022-12-28T20:27:01.503Z,2.80
2022-12-28T20:29:40.050Z,2.70
2022-12-28T20:32:06.830Z,2.60
2022-12-28T20:34:34.915Z,2.78
2022-12-28T20:37:02.011Z,2.72
2022-12-28T20:39:28.814Z,2.38
2022-12-28T20:42:16.038Z,2.60
2022-12-28T20:44:42.948Z,2.40
2022-12-28T20:47:24.349Z,2.38
2022-12-28T20:50:40.028Z,2.63
2022-12-28T20:53:06.749Z,2.10
2022-12-28T20:55:33.547Z,2.40
2022-12-28T20:58:00.360Z,2.38
2022-12-28T21:00:27.187Z,2.47
2022-12-28T21:02:53.923Z,2.25
2022-12-28T21:05:22.254Z,2.72
2022-12-28T21:07:50.402Z,2.20
2022-12-28T21:11:09.551Z,2.50
2022-12-28T21:13:42.232Z,2.83
2022-12-28T21:16:36.813Z,2.40
2022-12-28T21:19:03.839Z,2.42
2022-12-28T21:21:30.639Z,2.63
2022-12-28T21:23:57.355Z,2.08
2022-12-28T21:26:24.200Z,2.33
2022-12-28T21:28:51.197Z,2.55
2022-12-28T21:31:18.001Z,2.13
2022-12-28T21:33:44.941Z,2.08
2022-12-28T21:36:19.095Z,2.30
2022-12-28T21:38:47.363Z,2.03
2022-12-28T21:41:37.855Z,2.20
2022-12-28T21:44:06.808Z,2.42
2022-12-28T21:46:34.191Z,1.83
2022-12-28T21:49:03.544Z,2.05
2022-12-28T21:51:31.447Z,1.95
2022-12-28T21:54:20.134Z,2.15
2022-12-28T21:56:52.513Z,1.80
2022-12-28T21:59:19.365Z,2.53
2022-12-28T22:02:04.905Z,1.65
2022-12-28T22:04:50.373Z,1.83
2022-12-28T22:07:19.256Z,1.60
2022-12-28T22:10:05.237Z,1.77
2022-12-28T22:12:35.293Z,1.25
2022-12-28T22:15:33.950Z,1.65
2022-12-28T22:18:07.120Z,1.38
2022-12-28T22:20:36.373Z,1.65
2022-12-28T22:23:20.389Z,2.10
2022-12-28T22:25:49.450Z,1.33
2022-12-28T22:29:00.496Z,1.73
2022-12-28T22:32:01.915Z,1.55
2022-12-28T22:34:32.306Z,1.73
2022-12-28T22:36:59.024Z,1.77
2022-12-28T22:39:31.256Z,1.70
2022-12-28T22:42:01.458Z,1.88
2022-12-28T22:44:28.232Z,1.88
2022-12-28T22:46:55.269Z,1.98
2022-12-28T22:50:09.025Z,1.77
2022-12-28T22:52:57.009Z,1.60
2022-12-28T22:55:30.149Z,1.80
2022-12-28T22:58:00.346Z,1.75
2022-12-28T23:00:26.990Z,1.50
2022-12-28T23:02:53.783Z,2.10
2022-12-28T23:05:30.122Z,1.50
2022-12-28T23:08:19.672Z,1.50
2022-12-28T23:11:34.423Z,1.65
2022-12-28T23:17:32.453Z,1.90
2022-12-28T23:20:19.014Z,2.20
2022-12-28T23:23:11.868Z,1.88
2022-12-28T23:29:16.934Z,2.65
2022-12-28T23:31:43.597Z,2.25
2022-12-28T23:35:30.686Z,2.20
2022-12-28T23:38:08.321Z,2.10
2022-12-28T23:41:12.321Z,2.15
2022-12-28T23:44:00.739Z,2.03
2022-12-28T23:46:29.979Z,2.13
2022-12-28T23:48:56.823Z,2.40
2022-12-28T23:51:23.516Z,2.05
2022-12-28T23:54:16.087Z,2.22
2022-12-28T23:56:52.991Z,2.33
2022-12-28T23:59:19.874Z,2.10
